Time;durP1;ratioP1;P1;durP2;ratioP2;P2;SDS_P1;SDS_P2;PMS_P1;PMS_P2;Temp;Humidity;BMP_temperature;BMP_pressure;BME280_temperature;BME280_humidity;BME280_pressure;Samples;Min_cycle;Max_cycle;Signal;HPM_P1;HPM_P2
2021/03/26 00:00:51;;;;;;;;;;;;;;;16.39;68.48;101498.16;5030953;28;1609;-57
2021/03/26 00:03:18;;;;;;;;;;;;;;;16.38;67.18;101498.28;5031893;28;1567;-67
2021/03/26 00:05:44;;;;;;;;;;;;;;;16.38;68.21;101492.94;5031937;28;1400;-57
2021/03/26 00:08:11;;;;;;;;;;;;;;;16.38;67.93;101492.94;5031430;28;1459;-58
2021/03/26 00:10:37;;;;;;;;;;;;;;;16.32;66.88;101494.19;5030440;28;1893;-67
2021/03/26 00:13:02;;;;;;;;;;;;;;;16.36;68.08;101497.50;5033257;28;1511;-67
2021/03/26 00:15:28;;;;;;;;;;;;;;;16.35;68.08;101495.78;5029509;28;1385;-57
2021/03/26 00:17:53;;;;;;;;;;;;;;;16.37;67.31;101489.38;5028034;28;1342;-67
2021/03/26 00:20:18;;;;;;;;;;;;;;;16.34;66.74;101494.94;5030503;28;1458;-57
2021/03/26 00:22:44;;;;;;;;;;;;;;;16.33;66.69;101492.34;5025105;28;1568;-57
2021/03/26 00:25:10;;;;;;;;;;;;;;;16.34;67.80;101497.59;5024526;28;1630;-67
2021/03/26 00:27:36;;;;;;;;;;;;;;;16.32;67.96;101504.00;5033574;28;1500;-57
2021/03/26 00:30:02;;;;;;;;;;;;;;;16.29;67.07;101503.25;5029074;28;1906;-67
2021/03/26 00:32:27;;;;;;;;;;;;;;;16.27;66.76;101502.50;5031201;28;1775;-67
2021/03/26 00:34:54;;;;;;;;;;;;;;;16.30;67.94;101496.09;5030788;28;1718;-57
2021/03/26 00:37:20;;;;;;;;;;;;;;;16.29;66.92;101494.38;5031458;28;1442;-67
2021/03/26 00:39:45;;;;;;;;;;;;;;;16.32;67.43;101520.88;5028567;28;1972;-57
2021/03/26 00:42:11;;;;;;;;;;;;;;;16.29;67.86;101494.38;5033628;28;1259;-57
2021/03/26 00:44:36;;;;;;;;;;;;;;;16.28;66.59;101504.19;5028093;28;1608;-57
2021/03/26 00:47:02;;;;;;;;;;;;;;;16.32;67.93;101501.34;5025922;28;1384;-57
2021/03/26 00:49:27;;;;;;;;;;;;;;;16.23;67.01;101498.28;5030615;28;1566;-67
2021/03/26 00:51:53;;;;;;;;;;;;;;;16.24;67.86;101499.16;5028913;28;1980;-67
2021/03/26 00:54:18;;;;;;;;;;;;;;;16.21;67.54;101492.19;5030217;28;1725;-67
2021/03/26 00:56:44;;;;;;;;;;;;;;;16.25;67.73;101503.53;5033261;28;1365;-57
2021/03/26 00:59:10;;;;;;;;;;;;;;;16.23;67.17;101508.09;5030805;28;1419;-67
2021/03/26 01:01:35;;;;;;;;;;;;;;;16.20;67.14;101506.50;5029205;28;1500;-57
2021/03/26 01:04:01;;;;;;;;;;;;;;;16.17;67.16;101508.50;5026503;28;1417;-57
2021/03/26 01:06:26;;;;;;;;;;;;;;;16.20;67.75;101505.66;5043238;28;1417;-67
2021/03/26 01:08:51;;;;;;;;;;;;;;;16.16;67.05;101505.00;5029487;28;1402;-57
2021/03/26 01:11:19;;;;;;;;;;;;;;;16.18;67.56;101507.56;5037067;28;1897;-58
2021/03/26 01:13:45;;;;;;;;;;;;;;;16.12;67.89;101513.31;5033990;28;1424;-57
2021/03/26 01:16:12;;;;;;;;;;;;;;;16.12;66.50;101510.63;5036257;28;1551;-57
2021/03/26 01:18:40;;;;;;;;;;;;;;;16.12;67.04;101513.31;5034501;28;1431;-67
2021/03/26 01:21:06;;;;;;;;;;;;;;;16.12;67.31;101516.81;5033260;28;1373;-68
2021/03/26 01:23:32;;;;;;;;;;;;;;;16.10;67.59;101518.72;5025487;28;1365;-67
2021/03/26 01:25:57;;;;;;;;;;;;;;;16.10;67.38;101521.41;5033386;28;1660;-57
2021/03/26 01:28:24;;;;;;;;;;;;;;;16.10;67.01;101516.91;5033958;28;1391;-67
2021/03/26 01:30:50;;;;;;;;;;;;;;;16.12;66.46;101519.50;5030331;28;1918;-67
2021/03/26 01:33:16;;;;;;;;;;;;;;;16.13;67.43;101531.84;5030269;28;1762;-67
2021/03/26 01:35:41;;;;;;;;;;;;;;;16.11;66.36;101523.09;5031415;28;1419;-57
2021/03/26 01:38:07;;;;;;;;;;;;;;;16.10;66.70;101537.41;5033254;28;1275;-57
2021/03/26 01:40:37;;;;;;;;;;;;;;;16.06;67.62;101527.88;5034091;28;1572;-67
2021/03/26 01:43:26;;;;;;;;;;;;;;;16.06;66.64;101533.22;5033263;28;1618;-67
2021/03/26 01:45:53;;;;;;;;;;;;;;;16.07;66.24;101533.09;5023156;28;1741;-57
2021/03/26 01:48:23;;;;;;;;;;;;;;;16.04;67.59;101532.47;5033087;28;1533;-67
2021/03/26 01:50:48;;;;;;;;;;;;;;;16.01;66.17;101529.97;5031822;28;2065;-67
2021/03/26 01:53:21;;;;;;;;;;;;;;;16.05;67.59;101540.34;5029741;28;1385;-57
2021/03/26 01:55:47;;;;;;;;;;;;;;;16.00;66.39;101534.47;5030137;28;1734;-66
2021/03/26 01:58:17;;;;;;;;;;;;;;;16.03;67.46;101541.41;5034872;28;1371;-67
2021/03/26 02:01:09;;;;;;;;;;;;;;;16.02;66.67;101543.22;5032477;28;1409;-67
2021/03/26 02:03:45;;;;;;;;;;;;;;;16.00;66.54;101546.94;5011384;28;1509;-67
2021/03/26 02:06:16;;;;;;;;;;;;;;;16.02;66.35;101543.22;5031978;28;1339;-57
2021/03/26 02:08:42;;;;;;;;;;;;;;;16.01;66.38;101543.31;5029386;28;1343;-67
2021/03/26 02:11:14;;;;;;;;;;;;;;;16.03;66.92;101552.06;5034553;28;1902;-57
2021/03/26 02:13:39;;;;;;;;;;;;;;;15.99;66.06;101539.88;5033569;28;1520;-63
2021/03/26 02:16:06;;;;;;;;;;;;;;;16.00;66.12;101546.94;5028796;28;1621;-67
2021/03/26 02:18:33;;;;;;;;;;;;;;;15.98;67.55;101560.38;5033165;28;1337;-67
2021/03/26 02:21:14;;;;;;;;;;;;;;;16.00;66.91;101562.97;5031596;28;1214;-57
2021/03/26 02:23:40;;;;;;;;;;;;;;;15.96;65.98;101561.44;5030971;28;1426;-67
2021/03/26 02:26:13;;;;;;;;;;;;;;;15.97;66.01;101560.47;5025610;28;1307;-66
2021/03/26 02:28:38;;;;;;;;;;;;;;;15.91;67.41;101567.88;5025059;28;1389;-67
2021/03/26 02:31:04;;;;;;;;;;;;;;;15.91;66.26;101559.88;5031141;28;1918;-67
2021/03/26 02:33:29;;;;;;;;;;;;;;;15.91;66.41;101573.22;5027843;28;1385;-57
2021/03/26 02:36:17;;;;;;;;;;;;;;;15.94;66.11;101574.03;5029406;28;1331;-57
2021/03/26 02:38:48;;;;;;;;;;;;;;;15.89;67.36;101566.28;5041354;28;1557;-67
2021/03/26 02:41:18;;;;;;;;;;;;;;;15.88;67.50;101560.09;5032285;28;1570;-57
2021/03/26 02:44:02;;;;;;;;;;;;;;;15.89;66.82;101567.13;5031783;28;1574;-67
2021/03/26 02:46:34;;;;;;;;;;;;;;;15.93;67.06;101577.63;5027852;28;1564;-67
2021/03/26 02:49:08;;;;;;;;;;;;;;;15.93;66.33;101572.28;5032245;28;1508;-67
2021/03/26 02:51:46;;;;;;;;;;;;;;;15.87;67.15;101558.38;5031087;28;1969;-67
2021/03/26 02:54:19;;;;;;;;;;;;;;;15.89;66.43;101571.63;5021174;28;1668;-67
2021/03/26 02:56:48;;;;;;;;;;;;;;;15.87;66.01;101571.69;5027454;28;1584;-67
2021/03/26 02:59:18;;;;;;;;;;;;;;;15.89;66.70;101572.47;5031782;28;1703;-67
2021/03/26 03:04:18;;;;;;;;;;;;;;;15.86;66.69;101579.81;5004784;28;1708;-46
2021/03/26 03:06:52;;;;;;;;;;;;;;;15.84;66.15;101571.91;4978727;28;1528;-47
2021/03/26 03:09:19;;;;;;;;;;;;;;;15.82;67.13;101581.81;5015190;28;1427;-47
2021/03/26 03:12:08;;;;;;;;;;;;;;;15.80;66.14;101578.38;5032339;22;3576;-67
2021/03/26 03:14:38;;;;;;;;;;;;;;;15.83;66.16;101580.00;5009357;28;1370;-67
2021/03/26 03:17:09;;;;;;;;;;;;;;;15.84;67.07;101574.56;5017350;28;1283;-57
2021/03/26 03:19:53;;;;;;;;;;;;;;;15.82;67.59;101581.81;5012046;28;1514;-57
2021/03/26 03:22:35;;;;;;;;;;;;;;;15.80;66.58;101583.72;5011174;28;1428;-57
2021/03/26 03:25:05;;;;;;;;;;;;;;;15.86;66.65;101598.50;5015047;28;1577;-57
2021/03/26 03:27:31;;;;;;;;;;;;;;;15.86;67.09;101599.34;5013609;28;1523;-57
2021/03/26 03:30:15;;;;;;;;;;;;;;;15.86;66.36;101604.69;5013957;28;1914;-57
2021/03/26 03:32:43;;;;;;;;;;;;;;;15.86;67.44;101604.69;5016999;28;1463;-57
2021/03/26 03:35:18;;;;;;;;;;;;;;;15.85;66.19;101602.94;5014160;28;1613;-57
2021/03/26 03:37:54;;;;;;;;;;;;;;;15.83;67.64;101599.53;5014872;28;1507;-67
2021/03/26 03:40:25;;;;;;;;;;;;;;;15.80;67.17;101601.53;5005602;28;1394;-67
2021/03/26 03:43:01;;;;;;;;;;;;;;;15.79;67.75;101608.66;5016712;28;1310;-57
2021/03/26 03:45:29;;;;;;;;;;;;;;;15.80;66.62;101614.88;5017406;28;1358;-57
2021/03/26 03:48:33;;;;;;;;;;;;;;;15.79;66.35;101622.00;5015593;28;1371;-57
2021/03/26 03:51:12;;;;;;;;;;;;;;;15.74;66.80;101610.78;4953454;28;1902;-57
2021/03/26 03:53:41;;;;;;;;;;;;;;;15.75;66.95;101624.94;4954845;28;1410;-57
2021/03/26 03:56:09;;;;;;;;;;;;;;;15.73;66.85;101614.38;4995760;28;1328;-57
2021/03/26 03:58:40;;;;;;;;;;;;;;;15.74;67.58;101616.09;5014642;28;1485;-57
2021/03/26 04:01:15;;;;;;;;;;;;;;;15.77;66.75;101631.06;5010653;28;1561;-57
2021/03/26 04:03:46;;;;;;;;;;;;;;;15.75;66.74;101616.94;5011630;28;1408;-57
2021/03/26 04:06:35;;;;;;;;;;;;;;;15.72;67.32;101620.63;5008213;28;1354;-57
2021/03/26 04:09:05;;;;;;;;;;;;;;;15.74;66.56;101626.78;5000535;28;1357;-57
2021/03/26 04:11:33;;;;;;;;;;;;;;;15.72;66.45;101628.63;5011183;28;1894;-57
2021/03/26 04:14:12;;;;;;;;;;;;;;;15.71;66.79;101634.91;5015919;28;1639;-67
2021/03/26 04:16:40;;;;;;;;;;;;;;;15.70;67.07;101634.06;5013021;28;1406;-67
2021/03/26 04:19:14;;;;;;;;;;;;;;;15.71;66.60;101643.75;5013518;28;1281;-67
2021/03/26 04:21:41;;;;;;;;;;;;;;;15.50;66.27;101611.25;5015092;28;1686;-57
2021/03/26 04:24:13;;;;;;;;;;;;;;;15.66;66.98;101635.19;5021091;28;1632;-57
2021/03/26 04:26:38;;;;;;;;;;;;;;;15.68;67.48;101637.78;5012318;28;1655;-67
2021/03/26 04:29:16;;;;;;;;;;;;;;;15.70;66.61;101638.53;5017903;28;1692;-67
2021/03/26 04:31:45;;;;;;;;;;;;;;;15.66;66.53;101637.88;5009155;28;1942;-57
2021/03/26 04:34:10;;;;;;;;;;;;;;;15.64;67.04;101633.59;5016353;28;1353;-57
2021/03/26 04:36:43;;;;;;;;;;;;;;;15.69;67.23;101644.81;5020959;28;1580;-57
2021/03/26 04:39:24;;;;;;;;;;;;;;;15.65;66.35;101648.63;5013339;28;1615;-57
2021/03/26 04:41:56;;;;;;;;;;;;;;;15.63;66.55;101651.38;5007404;28;1310;-57
2021/03/26 04:44:29;;;;;;;;;;;;;;;15.65;67.14;101653.94;5009159;28;1704;-57
2021/03/26 04:47:20;;;;;;;;;;;;;;;15.70;66.10;101654.53;5008767;28;1424;-57
2021/03/26 04:49:55;;;;;;;;;;;;;;;15.69;66.87;101651.00;5007523;28;1375;-66
2021/03/26 04:52:46;;;;;;;;;;;;;;;15.71;66.66;101657.09;5021173;28;1886;-66
2021/03/26 04:55:12;;;;;;;;;;;;;;;15.69;67.18;101661.66;5011515;28;1532;-66
2021/03/26 04:57:44;;;;;;;;;;;;;;;15.75;67.33;101660.47;5013977;28;1372;-66
2021/03/26 05:00:10;;;;;;;;;;;;;;;15.73;66.81;101661.53;5014376;28;1440;-66
2021/03/26 05:02:38;;;;;;;;;;;;;;;15.69;66.54;101668.81;5019263;28;1476;-57
2021/03/26 05:05:05;;;;;;;;;;;;;;;15.69;67.84;101671.47;5008770;28;1747;-66
2021/03/26 05:07:40;;;;;;;;;;;;;;;15.75;66.74;101655.13;5017247;28;1590;-66
2021/03/26 05:10:08;;;;;;;;;;;;;;;15.59;67.48;101662.31;5018299;28;1902;-57
2021/03/26 05:12:35;;;;;;;;;;;;;;;15.68;66.91;101670.63;5010090;28;1584;-57
2021/03/26 05:15:00;;;;;;;;;;;;;;;15.75;66.77;101671.13;5011117;28;1541;-58
2021/03/26 05:17:30;;;;;;;;;;;;;;;15.73;66.73;101670.38;5009563;28;1446;-58
2021/03/26 05:20:19;;;;;;;;;;;;;;;15.72;66.51;101673.97;5018072;28;1458;-58
2021/03/26 05:22:52;;;;;;;;;;;;;;;15.70;67.38;101691.88;5003265;28;1488;-58
2021/03/26 05:25:20;;;;;;;;;;;;;;;15.67;66.44;101698.22;5013397;28;1350;-65
2021/03/26 05:27:46;;;;;;;;;;;;;;;15.67;66.32;101684.88;5006106;28;1307;-65
2021/03/26 05:30:17;;;;;;;;;;;;;;;15.69;66.79;101682.13;5021574;28;1910;-65
2021/03/26 05:32:44;;;;;;;;;;;;;;;17.09;62.34;101671.66;5017080;28;1249;-57
2021/03/26 05:35:09;;;;;;;;;;;;;;;17.89;60.15;101668.97;5016957;28;1472;-62
2021/03/26 05:37:37;;;;;;;;;;;;;;;18.13;59.69;101664.72;5018562;28;1396;-61
2021/03/26 05:40:05;;;;;;;;;;;;;;;18.02;59.64;101666.28;5018059;28;1429;-66
2021/03/26 05:42:33;;;;;;;;;;;;;;;18.13;59.63;101662.03;5020326;28;1231;-65
2021/03/26 05:45:02;;;;;;;;;;;;;;;18.12;59.46;101671.84;5012838;28;1643;-65
2021/03/26 05:47:30;;;;;;;;;;;;;;;17.78;59.63;101668.81;5015764;28;1701;-66
2021/03/26 05:49:56;;;;;;;;;;;;;;;17.29;61.14;101667.66;5013659;28;1330;-59
2021/03/26 05:52:40;;;;;;;;;;;;;;;16.82;63.84;101676.13;5012095;28;1955;-57
2021/03/26 05:55:20;;;;;;;;;;;;;;;16.50;65.44;101684.34;5015823;28;1490;-58
2021/03/26 05:57:55;;;;;;;;;;;;;;;16.33;66.17;101680.06;5014263;28;1220;-60
2021/03/26 06:00:29;;;;;;;;;;;;;;;16.26;66.20;101692.06;5008454;28;1451;-55
2021/03/26 06:03:13;;;;;;;;;;;;;;;16.19;65.75;101688.91;5011584;28;1408;-62
2021/03/26 06:05:57;;;;;;;;;;;;;;;16.13;67.32;101688.44;5016615;28;1372;-59
2021/03/26 06:08:41;;;;;;;;;;;;;;;16.09;66.08;101685.97;5017473;28;1407;-62
2021/03/26 06:11:16;;;;;;;;;;;;;;;16.09;66.27;101687.75;5013420;28;1955;-61
2021/03/26 06:14:00;;;;;;;;;;;;;;;16.11;66.61;101699.19;5013320;28;1307;-57
2021/03/26 06:16:28;;;;;;;;;;;;;;;16.10;67.19;101692.16;5013156;28;1374;-63
2021/03/26 06:19:01;;;;;;;;;;;;;;;16.11;67.26;101693.88;5013374;28;1308;-63
2021/03/26 06:21:39;;;;;;;;;;;;;;;16.06;66.19;101688.81;5014814;28;1478;-62
2021/03/26 06:24:27;;;;;;;;;;;;;;;16.08;67.07;101694.06;5000861;28;1404;-64
2021/03/26 06:26:59;;;;;;;;;;;;;;;16.08;65.99;101700.25;4998995;28;1323;-58
2021/03/26 06:29:37;;;;;;;;;;;;;;;16.13;66.83;101697.28;5005152;28;1248;-66
2021/03/26 06:32:17;;;;;;;;;;;;;;;16.10;67.67;101708.16;5027281;28;1910;-58
2021/03/26 06:35:01;;;;;;;;;;;;;;;16.11;66.08;101699.19;5015516;28;1383;-58
2021/03/26 06:37:32;;;;;;;;;;;;;;;16.13;66.83;101705.28;5010372;28;1300;-61
2021/03/26 06:40:16;;;;;;;;;;;;;;;16.16;66.57;101709.63;5009821;28;1389;-58
2021/03/26 06:42:52;;;;;;;;;;;;;;;16.18;67.34;101716.56;5007111;28;1273;-58
2021/03/26 06:45:50;;;;;;;;;;;;;;;16.28;66.38;101716.84;5016187;28;1399;-67
2021/03/26 06:48:15;;;;;;;;;;;;;;;16.28;66.11;101717.72;4993933;28;1404;-65
2021/03/26 06:50:47;;;;;;;;;;;;;;;16.27;66.21;101708.00;5010314;28;1959;-60
2021/03/26 06:53:12;;;;;;;;;;;;;;;16.30;66.46;101715.81;5020826;28;1332;-67
2021/03/26 06:55:50;;;;;;;;;;;;;;;16.39;66.80;101713.50;5012716;28;1736;-58
2021/03/26 06:58:24;;;;;;;;;;;;;;;16.41;65.88;101716.94;4996603;28;1405;-68
2021/03/26 07:01:10;;;;;;;;;;;;;;;16.46;65.44;101714.88;5016287;28;1476;-72
2021/03/26 07:03:50;;;;;;;;;;;;;;;16.57;65.74;101728.38;4991590;28;1501;-59
2021/03/26 07:06:34;;;;;;;;;;;;;;;16.60;65.94;101725.53;5003961;28;1354;-59
2021/03/26 07:09:19;;;;;;;;;;;;;;;16.68;66.44;101717.03;5011120;28;1308;-58
2021/03/26 07:11:56;;;;;;;;;;;;;;;16.78;65.20;101722.66;5010481;28;1918;-68
2021/03/26 07:14:40;;;;;;;;;;;;;;;16.95;64.94;101716.25;5013161;28;1406;-59
2021/03/26 07:17:24;;;;;;;;;;;;;;;17.01;65.52;101735.44;5014712;28;1351;-59
2021/03/26 07:20:00;;;;;;;;;;;;;;;17.11;65.37;101722.34;5015794;28;1427;-59
2021/03/26 07:22:28;;;;;;;;;;;;;;;17.24;65.79;101738.44;5011686;28;1364;-59
2021/03/26 07:25:09;;;;;;;;;;;;;;;17.30;65.49;101733.53;5010654;28;1482;-59
2021/03/26 07:27:52;;;;;;;;;;;;;;;17.39;65.72;101721.38;5005955;28;1384;-60
2021/03/26 07:30:28;;;;;;;;;;;;;;;17.47;66.39;101724.41;5022837;28;1910;-68
2021/03/26 07:33:11;;;;;;;;;;;;;;;17.54;65.78;101734.69;5010093;28;1491;-59
2021/03/26 07:36:03;;;;;;;;;;;;;;;17.59;66.30;101733.44;5018885;28;1366;-68
2021/03/26 07:38:35;;;;;;;;;;;;;;;17.68;65.87;101740.81;5002300;28;1626;-68
2021/03/26 07:41:00;;;;;;;;;;;;;;;17.73;65.72;101740.53;5015829;28;1568;-68
2021/03/26 07:43:44;;;;;;;;;;;;;;;17.76;65.87;101731.44;5003872;28;1277;-59
2021/03/26 07:46:09;;;;;;;;;;;;;;;17.85;65.33;101753.09;5011215;28;1555;-68
2021/03/26 07:48:51;;;;;;;;;;;;;;;17.89;65.98;101762.63;5013877;28;1494;-68
2021/03/26 07:51:28;;;;;;;;;;;;;;;17.92;66.12;101750.84;5025268;28;1889;-65
2021/03/26 07:54:03;;;;;;;;;;;;;;;18.08;65.01;101764.03;5009142;28;1603;-68
2021/03/26 07:56:49;;;;;;;;;;;;;;;18.12;65.69;101765.53;5007637;28;1357;-60
2021/03/26 07:59:14;;;;;;;;;;;;;;;18.26;65.01;101753.88;5011203;28;1521;-64
2021/03/26 08:01:49;;;;;;;;;;;;;;;18.26;65.17;101765.47;5010160;28;1452;-59
2021/03/26 08:04:35;;;;;;;;;;;;;;;18.32;64.78;101768.66;5013239;28;1280;-59
2021/03/26 08:07:00;;;;;;;;;;;;;;;18.30;64.79;101760.75;5010352;28;1396;-59
2021/03/26 08:09:44;;;;;;;;;;;;;;;18.37;65.05;101777.25;5013218;28;1302;-65
2021/03/26 08:12:18;;;;;;;;;;;;;;;18.45;64.71;101773.06;5021181;28;1894;-61
2021/03/26 08:14:52;;;;;;;;;;;;;;;18.47;64.59;101781.84;5011107;28;1395;-60
2021/03/26 08:17:20;;;;;;;;;;;;;;;18.48;64.26;101778.22;5014488;28;1697;-61
2021/03/26 08:19:45;;;;;;;;;;;;;;;18.51;64.66;101790.53;5014686;28;1400;-61
2021/03/26 08:22:22;;;;;;;;;;;;;;;18.54;64.87;101779.59;5010309;28;1540;-65
2021/03/26 08:24:54;;;;;;;;;;;;;;;18.50;64.74;101783.44;5008521;28;1446;-60
2021/03/26 08:27:32;;;;;;;;;;;;;;;18.43;64.84;101783.03;5001257;28;1394;-59
2021/03/26 08:30:16;;;;;;;;;;;;;;;18.43;64.73;101793.75;5009759;28;1382;-62
2021/03/26 08:33:14;;;;;;;;;;;;;;;18.40;65.06;101779.69;5012897;28;1440;-61
2021/03/26 08:35:39;;;;;;;;;;;;;;;18.38;65.31;101781.63;4983798;28;1510;-63
2021/03/26 08:38:23;;;;;;;;;;;;;;;18.34;65.26;101788.16;5008959;28;1264;-60
2021/03/26 08:40:52;;;;;;;;;;;;;;;18.23;65.89;101787.09;5004083;28;1340;-61
2021/03/26 08:43:19;;;;;;;;;;;;;;;18.19;65.70;101788.28;5004433;28;1463;-68
2021/03/26 08:45:47;;;;;;;;;;;;;;;18.19;66.15;101788.28;5006307;28;1343;-59
2021/03/26 08:48:24;;;;;;;;;;;;;;;18.11;66.13;101779.06;5001386;28;1536;-59
2021/03/26 08:50:49;;;;;;;;;;;;;;;18.08;66.26;101789.00;5010995;28;1979;-60
2021/03/26 08:53:24;;;;;;;;;;;;;;;18.09;65.82;101784.50;5006376;28;1626;-59
2021/03/26 08:56:05;;;;;;;;;;;;;;;18.08;66.00;101789.00;5007744;28;1563;-66
2021/03/26 08:58:39;;;;;;;;;;;;;;;18.06;66.17;101776.69;5005335;28;1555;-67
2021/03/26 09:01:21;;;;;;;;;;;;;;;18.02;65.82;101785.88;5001706;28;1451;-59
2021/03/26 09:04:05;;;;;;;;;;;;;;;18.02;64.90;101788.56;5011182;28;1423;-59
2021/03/26 09:06:42;;;;;;;;;;;;;;;18.05;65.41;101783.00;5001182;28;1486;-59
2021/03/26 09:09:26;;;;;;;;;;;;;;;18.03;65.15;101784.94;5014619;28;1529;-66
2021/03/26 09:12:03;;;;;;;;;;;;;;;18.02;64.36;101783.19;5007868;28;1890;-66
2021/03/26 09:14:39;;;;;;;;;;;;;;;18.03;64.70;101784.94;5004580;28;1396;-66
2021/03/26 09:17:11;;;;;;;;;;;;;;;18.13;64.26;101791.38;4999589;28;1424;-66
2021/03/26 09:19:46;;;;;;;;;;;;;;;18.08;64.58;101780.97;4999694;28;1409;-59
2021/03/26 09:22:30;;;;;;;;;;;;;;;18.09;64.96;101785.34;5004386;28;1205;-59
2021/03/26 09:25:08;;;;;;;;;;;;;;;18.11;64.05;101781.75;5005523;28;1299;-59
2021/03/26 09:27:33;;;;;;;;;;;;;;;18.13;64.25;101786.00;4998742;28;1234;-59
2021/03/26 09:30:18;;;;;;;;;;;;;;;18.12;64.33;101778.94;5007818;28;1728;-59
2021/03/26 09:32:43;;;;;;;;;;;;;;;18.09;64.58;101769.31;5009065;28;1214;-66
2021/03/26 09:35:16;;;;;;;;;;;;;;;18.13;64.72;101777.13;5012006;28;1549;-59
2021/03/26 09:37:58;;;;;;;;;;;;;;;18.14;65.04;101777.00;5004896;28;1669;-66
2021/03/26 09:40:26;;;;;;;;;;;;;;;18.32;63.54;101774.88;5014915;28;1505;-66
2021/03/26 09:43:05;;;;;;;;;;;;;;;18.26;62.84;101773.50;5004350;28;1442;-59
2021/03/26 09:45:34;;;;;;;;;;;;;;;18.16;63.89;101769.72;5024062;28;1410;-60
2021/03/26 09:48:11;;;;;;;;;;;;;;;18.14;63.55;101766.31;5012398;28;1481;-66
2021/03/26 09:50:49;;;;;;;;;;;;;;;18.09;62.34;101765.78;5014642;28;1890;-60
2021/03/26 09:53:16;;;;;;;;;;;;;;;18.12;63.14;101762.03;5021076;28;946;-66
2021/03/26 09:55:42;;;;;;;;;;;;;;;18.15;59.83;101756.47;5011907;28;1434;-69
2021/03/26 09:58:14;;;;;;;;;;;;;;;18.31;62.66;101750.91;5007238;28;1447;-59
2021/03/26 10:00:57;;;;;;;;;;;;;;;18.33;59.75;101755.19;5013281;28;1578;-60
2021/03/26 10:03:38;;;;;;;;;;;;;;;18.36;61.55;101764.81;5013026;28;1442;-59
2021/03/26 10:06:15;;;;;;;;;;;;;;;18.23;61.37;101754.13;5012395;28;1626;-65
2021/03/26 10:11:51;;;;;;;;;;;;;;;18.26;60.92;101754.78;5009993;28;1945;-60
2021/03/26 10:14:24;;;;;;;;;;;;;;;18.22;60.46;101749.72;4998919;28;1479;-63
2021/03/26 10:16:53;;;;;;;;;;;;;;;18.18;59.86;101762.44;5019445;28;1421;-63
2021/03/26 10:19:38;;;;;;;;;;;;;;;18.27;59.88;101756.47;5019813;28;1551;-62
2021/03/26 10:22:17;;;;;;;;;;;;;;;18.42;59.30;101751.88;5022932;28;1473;-60
2021/03/26 10:24:45;;;;;;;;;;;;;;;18.37;58.96;101758.50;5016964;28;1394;-63
2021/03/26 10:27:23;;;;;;;;;;;;;;;18.13;59.13;101759.25;5011679;28;1545;-59
2021/03/26 10:29:51;;;;;;;;;;;;;;;18.09;58.57;101755.91;5016731;28;1673;-59
2021/03/26 10:32:25;;;;;;;;;;;;;;;18.10;59.25;101751.41;5008737;28;1910;-63
2021/03/26 10:34:51;;;;;;;;;;;;;;;18.04;58.61;101755.38;5012860;28;1324;-62
2021/03/26 10:37:28;;;;;;;;;;;;;;;17.97;59.99;101742.53;5014639;28;1541;-60
2021/03/26 10:40:00;;;;;;;;;;;;;;;18.00;59.01;101744.97;5013098;28;1323;-60
2021/03/26 10:42:31;;;;;;;;;;;;;;;18.02;59.17;101740.38;5000429;28;1186;-60
2021/03/26 10:45:02;;;;;;;;;;;;;;;18.05;57.26;101751.75;5002914;28;1366;-60
2021/03/26 10:47:27;;;;;;;;;;;;;;;18.05;56.91;101750.88;5003134;28;1689;-63
2021/03/26 10:50:16;;;;;;;;;;;;;;;18.02;57.39;101738.56;5012614;28;1565;-59
2021/03/26 10:52:44;;;;;;;;;;;;;;;17.98;57.66;101745.06;5003812;28;1794;-59
2021/03/26 10:55:12;;;;;;;;;;;;;;;18.05;57.76;101734.81;5009437;28;1392;-63
2021/03/26 10:57:57;;;;;;;;;;;;;;;18.04;58.03;101749.16;5010567;28;1467;-63
2021/03/26 11:00:24;;;;;;;;;;;;;;;18.04;58.72;101750.00;5014993;28;1514;-64
2021/03/26 11:02:59;;;;;;;;;;;;;;;18.05;59.32;101741.03;5013412;28;1359;-59
2021/03/26 11:05:31;;;;;;;;;;;;;;;18.01;59.62;101738.69;5011412;28;1371;-59
2021/03/26 11:07:57;;;;;;;;;;;;;;;17.91;58.00;101732.25;5019054;28;1713;-62
2021/03/26 11:10:26;;;;;;;;;;;;;;;17.95;57.92;101721.22;5013630;28;1906;-66
2021/03/26 11:13:00;;;;;;;;;;;;;;;18.07;55.17;101735.56;5007120;28;1494;-63
2021/03/26 11:15:28;;;;;;;;;;;;;;;18.02;55.91;101721.66;5013336;28;1430;-63
2021/03/26 11:17:59;;;;;;;;;;;;;;;18.00;56.33;101727.09;5016845;28;1454;-59
2021/03/26 11:20:30;;;;;;;;;;;;;;;18.00;57.40;101732.44;5010214;28;1300;-60
2021/03/26 11:23:07;;;;;;;;;;;;;;;18.02;57.19;101724.31;5024244;28;1792;-63
2021/03/26 11:25:37;;;;;;;;;;;;;;;17.96;58.75;101741.66;5020978;28;1678;-63
2021/03/26 11:28:05;;;;;;;;;;;;;;;17.92;57.11;101721.41;4995989;28;1652;-64
2021/03/26 11:30:31;;;;;;;;;;;;;;;17.99;56.65;101725.41;5011787;28;1926;-60
2021/03/26 11:33:08;;;;;;;;;;;;;;;17.96;58.28;101719.41;5013591;28;1561;-60
2021/03/26 11:35:35;;;;;;;;;;;;;;;17.87;53.68;101711.03;5013925;28;1318;-60
2021/03/26 11:38:08;;;;;;;;;;;;;;;17.75;53.96;101727.06;5005956;28;1546;-61
2021/03/26 11:40:40;;;;;;;;;;;;;;;17.79;52.59;101718.69;5002801;28;1580;-62
2021/03/26 11:43:20;;;;;;;;;;;;;;;17.80;54.58;101707.03;5016271;28;1653;-59
2021/03/26 11:45:54;;;;;;;;;;;;;;;17.74;49.86;101715.47;5015499;28;1545;-62
2021/03/26 11:48:38;;;;;;;;;;;;;;;17.70;48.82;101703.25;5011472;28;1729;-60
2021/03/26 11:51:22;;;;;;;;;;;;;;;17.62;52.03;101700.25;5007298;28;1949;-60
2021/03/26 11:54:03;;;;;;;;;;;;;;;17.89;49.62;101705.59;5007820;28;1383;-60
2021/03/26 11:56:41;;;;;;;;;;;;;;;17.78;47.15;101690.22;5008223;28;1318;-60
2021/03/26 11:59:20;;;;;;;;;;;;;;;17.65;46.49;101689.38;5006907;28;1512;-60
2021/03/26 12:02:00;;;;;;;;;;;;;;;17.65;46.11;101697.38;5032440;28;1408;-60
2021/03/26 12:04:36;;;;;;;;;;;;;;;17.67;47.27;101690.13;5017567;28;1487;-63
2021/03/26 12:07:08;;;;;;;;;;;;;;;17.81;46.80;101700.72;5015123;28;1508;-67
2021/03/26 12:09:42;;;;;;;;;;;;;;;17.93;49.80;101687.50;5013679;28;1469;-61
2021/03/26 12:12:26;;;;;;;;;;;;;;;18.00;51.00;101688.78;5004903;28;1906;-64
2021/03/26 12:14:58;;;;;;;;;;;;;;;18.08;51.04;101686.41;5012477;28;1513;-60
2021/03/26 12:17:31;;;;;;;;;;;;;;;18.08;51.89;101681.94;5008317;28;1697;-61
2021/03/26 12:19:58;;;;;;;;;;;;;;;18.11;52.11;101664.81;5010070;28;1714;-63
2021/03/26 12:22:30;;;;;;;;;;;;;;;18.12;52.02;101671.84;5015823;28;1539;-64
2021/03/26 12:25:02;;;;;;;;;;;;;;;18.24;51.99;101671.03;5014475;28;1723;-60
2021/03/26 12:27:32;;;;;;;;;;;;;;;18.27;52.31;101669.94;5014639;28;1368;-59
2021/03/26 12:30:08;;;;;;;;;;;;;;;18.19;51.92;101667.78;5009260;28;1533;-63
2021/03/26 12:32:35;;;;;;;;;;;;;;;18.15;48.36;101671.66;5010283;28;1985;-64
2021/03/26 12:35:15;;;;;;;;;;;;;;;18.15;51.80;101665.47;5013912;28;1673;-60
2021/03/26 12:37:49;;;;;;;;;;;;;;;18.16;50.89;101669.81;5014789;28;1505;-64
2021/03/26 12:40:43;;;;;;;;;;;;;;;18.12;51.11;101665.66;5004451;28;1471;-65
2021/03/26 12:43:27;;;;;;;;;;;;;;;18.20;51.02;101657.94;5009392;28;1663;-70
2021/03/26 12:45:53;;;;;;;;;;;;;;;18.19;51.25;101657.09;5010184;28;1580;-64
2021/03/26 12:48:20;;;;;;;;;;;;;;;18.19;49.75;101664.28;5009579;28;1565;-60
2021/03/26 12:50:51;;;;;;;;;;;;;;;18.18;51.38;101647.31;5011202;28;1892;-64
2021/03/26 12:53:20;;;;;;;;;;;;;;;18.20;51.76;101648.06;5011655;28;1361;-63
2021/03/26 12:55:52;;;;;;;;;;;;;;;18.24;50.55;101641.56;5017952;28;1760;-59
2021/03/26 12:58:36;;;;;;;;;;;;;;;18.14;50.88;101637.81;5013362;28;1744;-60
2021/03/26 13:01:06;;;;;;;;;;;;;;;18.11;53.62;101648.75;5013613;28;1463;-64
2021/03/26 13:03:46;;;;;;;;;;;;;;;18.06;52.83;101630.34;5015817;28;1422;-60
2021/03/26 13:06:19;;;;;;;;;;;;;;;18.06;52.07;101645.53;5020213;28;1404;-60
2021/03/26 13:08:49;;;;;;;;;;;;;;;18.04;52.81;101636.75;5010143;28;1610;-60
2021/03/26 13:11:21;;;;;;;;;;;;;;;18.02;53.74;101636.84;5020728;28;1910;-64
2021/03/26 13:13:46;;;;;;;;;;;;;;;18.02;54.53;101641.34;5007306;28;1447;-60
2021/03/26 13:16:11;;;;;;;;;;;;;;;17.99;52.63;101639.75;5015328;28;1568;-60
2021/03/26 13:18:56;;;;;;;;;;;;;;;17.95;53.67;101637.41;5017448;28;1440;-60
2021/03/26 13:21:21;;;;;;;;;;;;;;;17.96;55.13;101633.75;5011723;28;1353;-60
2021/03/26 13:23:51;;;;;;;;;;;;;;;17.91;54.41;101635.91;5006703;28;1275;-60